METAR ET TAF INFORMATION
METAR FOR LCPH
ADDS - METARS form results

(0538 UTC 27 June 2022)
Data provider http://aviationweather.gov/metar/data/
 
METAR text: LCPH 270530Z 27005KT 250V320 CAVOK 26/21 Q1007
Conditions at: LCPH (PAPHOS/BAF INTL , CY) observed 0530 UTC 27 June 2022
Temperature: 26.0°C (79°F)
Dewpoint: 21.0°C (70°F) [RH = 74%]
Pressure (altimeter): 29.73 inches Hg (1007.0 mb)
Winds: from the W (270 degrees) at 6 MPH (5 knots; 2.6 m/s)
Visibility: 6 or more miles (10+ km)
Ceiling: ceiling and visibility are OK
Clouds: unknown
Weather: no significant weather observed at this time

METAR text: LCPH 270500Z 35003KT CAVOK 27/10 Q1007
Conditions at: LCPH (PAPHOS/BAF INTL , CY) observed 0500 UTC 27 June 2022
Temperature: 27.0°C (81°F)
Dewpoint: 10.0°C (50°F) [RH = 34%]
Pressure (altimeter): 29.73 inches Hg (1007.0 mb)
Winds: from the N (350 degrees) at 3 MPH (3 knots; 1.5 m/s)
Visibility: 6 or more miles (10+ km)
Ceiling: ceiling and visibility are OK
Clouds: unknown
Weather: no significant weather observed at this time

Forecast for: LCPH (PAPHOS/BAF INTL , CY)
Text: TAF LCPH 270530Z 2706/2806 07007KT 9999 FEW025
Forecast period: 0600 to 0700 UTC 27 June 2022
Forecast type: FROM: standard forecast or significant change
Winds: from the ENE (70 degrees) at 8 MPH (7 knots; 3.6 m/s)
Visibility: 6 or more miles (10+ km)
Ceiling: at least 12,000 feet AGL
Clouds: few clouds at 2500 feet AGL
Weather: no significant weather forecast for this period
Text: BECMG 2707/2710 25010KT
Forecast period: 0700 to 1900 UTC 27 June 2022
Forecast type: BECOMING: Conditions expected to become as follows by 1000 UTC 27 June 2022
Winds: from the WSW (250 degrees) at 12 MPH (10 knots; 5.1 m/s)
Visibility: 6 or more miles (10+ km)
Ceiling: at least 12,000 feet AGL
Clouds: few clouds at 2500 feet AGL
Weather: no significant weather forecast for this period
Text: BECMG 2719/2722 01007KT
Forecast period: 1900 UTC 27 June 2022 to 0600 UTC 28 June 2022
Forecast type: BECOMING: Conditions expected to become as follows by 2200 UTC 27 June 2022
Winds: from the N (10 degrees) at 8 MPH (7 knots; 3.6 m/s)
Visibility: 6 or more miles (10+ km)
Ceiling: at least 12,000 feet AGL
Clouds: few clouds at 2500 feet AGL
Weather: no significant weather forecast for this period

 AÉROPORT DE AÉROPORT

 INFORMATIONS DE PISTE
Piste 11 Longueur de la piste 8858 ft Largeur de la piste 148 ft
Élévation de la piste 41 ft Seuil de la piste déplacés 0 ft Runway heading 110
Piste 29 Longueur de la piste 8858 ft Largeur de la piste 148 ft
Élévation de la piste 30 ft Seuil de la piste déplacés 0 ft Runway heading 290

 AÉROPORT FRÉQUENCES
Type APP Nom APP Féquence 120.8 MHZ
Type TWR Nom TWR Féquence 119.9 MHZ

 SIDA DE NAVIGATION
Type TACAN Nom Pafos Féquence 113200 KHZ
Type VOR-DME Nom Pafos Féquence 117900 KHZ
Type NDB Nom Pafos Féquence 328 KHZ